Time;durP1;ratioP1;P1;durP2;ratioP2;P2;SDS_P1;SDS_P2;PMS_P1;PMS_P2;Temp;Humidity;BMP_temperature;BMP_pressure;BME280_temperature;BME280_humidity;BME280_pressure;Samples;Min_cycle;Max_cycle;Signal;HPM_P1;HPM_P2
2020/12/31 00:04:32;;;;;;;6.00;3.53;;;;;;;;;;10192060;28;20045;-64
2020/12/31 00:09:29;;;;;;;6.43;3.00;;;;;;;;;;10184877;28;20054;-64
2020/12/31 00:14:26;;;;;;;4.83;2.67;;;;;;;;;;10180354;28;20066;-64
2020/12/31 00:19:24;;;;;;;8.23;3.90;;;;;;;;;;10182571;28;20073;-65
2020/12/31 00:24:21;;;;;;;10.50;5.20;;;;;;;;;;10190533;28;20510;-64
2020/12/31 00:29:19;;;;;;;5.77;3.63;;;;;;;;;;10153022;28;20041;-64
2020/12/31 00:34:16;;;;;;;8.57;4.43;;;;;;;;;;10161523;28;20122;-65
2020/12/31 00:39:14;;;;;;;13.83;5.80;;;;;;;;;;10172270;28;20042;-64
2020/12/31 00:44:11;;;;;;;9.40;5.30;;;;;;;;;;10202378;28;20089;-63
2020/12/31 00:49:09;;;;;;;9.13;4.57;;;;;;;;;;10176241;28;20448;-62
2020/12/31 00:54:06;;;;;;;10.37;6.03;;;;;;;;;;10213737;28;20029;-61
2020/12/31 00:59:04;;;;;;;9.80;6.10;;;;;;;;;;10193844;28;20019;-61
2020/12/31 01:04:02;;;;;;;14.13;7.70;;;;;;;;;;10191714;28;20492;-61
2020/12/31 01:09:00;;;;;;;13.90;6.88;;;;;;;;;;10202909;28;20429;-60
2020/12/31 01:13:57;;;;;;;11.07;6.20;;;;;;;;;;10214069;28;20027;-61
2020/12/31 01:18:54;;;;;;;14.37;7.27;;;;;;;;;;10202430;28;20026;-63
2020/12/31 01:23:52;;;;;;;13.90;7.37;;;;;;;;;;10217296;28;20046;-62
2020/12/31 01:28:49;;;;;;;18.47;8.00;;;;;;;;;;10195553;28;20042;-61
2020/12/31 01:33:46;;;;;;;21.63;7.90;;;;;;;;;;10201966;28;20133;-63
2020/12/31 01:38:44;;;;;;;19.83;8.67;;;;;;;;;;10206232;28;20038;-63
2020/12/31 01:43:42;;;;;;;20.83;9.63;;;;;;;;;;10207874;28;20554;-62
2020/12/31 01:48:39;;;;;;;19.43;10.43;;;;;;;;;;10200429;28;20037;-62
2020/12/31 01:53:37;;;;;;;13.90;7.80;;;;;;;;;;10217729;28;20038;-62
2020/12/31 01:58:34;;;;;;;26.40;12.53;;;;;;;;;;10218903;28;20401;-63
2020/12/31 02:03:32;;;;;;;19.17;9.37;;;;;;;;;;10208449;28;20046;-63
2020/12/31 02:08:29;;;;;;;26.50;12.97;;;;;;;;;;10218622;28;20045;-63
2020/12/31 02:13:26;;;;;;;22.10;9.97;;;;;;;;;;10217159;28;20137;-63
2020/12/31 02:18:24;;;;;;;24.07;10.90;;;;;;;;;;10206523;28;20031;-63
2020/12/31 02:23:21;;;;;;;28.03;12.27;;;;;;;;;;10219513;28;20058;-63
2020/12/31 02:28:19;;;;;;;29.87;12.30;;;;;;;;;;10209420;28;20034;-63
2020/12/31 02:33:16;;;;;;;29.17;13.13;;;;;;;;;;10180423;28;20408;-62
2020/12/31 02:38:14;;;;;;;21.43;10.10;;;;;;;;;;10214803;28;20039;-63
2020/12/31 02:43:11;;;;;;;31.03;13.07;;;;;;;;;;10188172;28;20616;-61
2020/12/31 02:48:09;;;;;;;32.93;14.10;;;;;;;;;;10205086;28;20071;-63
2020/12/31 02:53:06;;;;;;;35.93;13.73;;;;;;;;;;10193946;28;20073;-63
2020/12/31 02:58:03;;;;;;;27.73;12.80;;;;;;;;;;10197739;28;20030;-63
2020/12/31 03:03:01;;;;;;;31.57;12.90;;;;;;;;;;10209348;28;20046;-64
2020/12/31 03:07:58;;;;;;;35.33;13.57;;;;;;;;;;10205445;28;20516;-63
2020/12/31 03:12:56;;;;;;;27.83;13.33;;;;;;;;;;10218475;28;20034;-63
2020/12/31 03:17:53;;;;;;;36.50;16.47;;;;;;;;;;10203703;28;20129;-63
2020/12/31 03:22:50;;;;;;;31.47;12.47;;;;;;;;;;10202637;28;20096;-63
2020/12/31 03:27:48;;;;;;;39.00;14.80;;;;;;;;;;10208296;28;20038;-63
2020/12/31 03:32:45;;;;;;;35.40;12.63;;;;;;;;;;10199697;28;20516;-63
2020/12/31 03:37:42;;;;;;;35.53;16.40;;;;;;;;;;10202359;28;20034;-63
2020/12/31 03:42:40;;;;;;;36.00;14.17;;;;;;;;;;10203608;28;20142;-63
2020/12/31 03:47:37;;;;;;;37.40;14.20;;;;;;;;;;10179008;28;20041;-61
2020/12/31 03:52:35;;;;;;;33.27;14.80;;;;;;;;;;10191154;28;20077;-63
2020/12/31 03:57:32;;;;;;;35.53;15.97;;;;;;;;;;10199740;28;20045;-63
2020/12/31 04:02:30;;;;;;;25.53;11.43;;;;;;;;;;10202691;28;20069;-63
2020/12/31 04:07:27;;;;;;;32.13;14.63;;;;;;;;;;10212436;28;20030;-63
2020/12/31 04:12:24;;;;;;;29.13;12.90;;;;;;;;;;10178116;28;20180;-62
2020/12/31 04:17:22;;;;;;;29.13;14.40;;;;;;;;;;10207538;28;20420;-63
2020/12/31 04:22:19;;;;;;;23.60;12.63;;;;;;;;;;10207638;28;20034;-62
2020/12/31 04:27:17;;;;;;;31.93;14.93;;;;;;;;;;10203972;28;20049;-63
2020/12/31 04:32:14;;;;;;;32.88;12.90;;;;;;;;;;10211293;28;20046;-62
2020/12/31 04:37:12;;;;;;;36.03;15.47;;;;;;;;;;10205560;28;20421;-63
2020/12/31 04:42:10;;;;;;;31.23;14.20;;;;;;;;;;10196174;28;20505;-62
2020/12/31 04:47:17;;;;;;;33.10;14.38;;;;;;;;;;10205399;28;20037;-63
2020/12/31 04:52:14;;;;;;;35.00;15.18;;;;;;;;;;10209435;28;20030;-63
2020/12/31 04:57:12;;;;;;;39.53;15.67;;;;;;;;;;10208016;28;20041;-62
2020/12/31 05:02:09;;;;;;;28.70;12.87;;;;;;;;;;10211979;28;20065;-61
2020/12/31 05:07:07;;;;;;;30.20;14.53;;;;;;;;;;10199168;28;20490;-62
2020/12/31 05:12:04;;;;;;;28.73;12.87;;;;;;;;;;10208959;28;20046;-64
2020/12/31 05:17:12;;;;;;;36.30;15.77;;;;;;;;;;10204015;28;20385;-63
2020/12/31 05:22:19;;;;;;;32.17;13.63;;;;;;;;;;10181253;28;20130;-63
2020/12/31 05:27:16;;;;;;;26.40;13.48;;;;;;;;;;10203929;28;20401;-63
2020/12/31 05:32:19;;;;;;;37.10;14.07;;;;;;;;;;10187891;28;20046;-63
2020/12/31 05:37:17;;;;;;;27.23;13.13;;;;;;;;;;10176942;28;20477;-63
2020/12/31 05:42:19;;;;;;;37.17;14.60;;;;;;;;;;10211259;28;20377;-62
2020/12/31 05:47:17;;;;;;;29.17;14.73;;;;;;;;;;10180910;28;20039;-63
2020/12/31 05:52:31;;;;;;;18.90;10.73;;;;;;;;;;10209511;28;20042;-63
2020/12/31 05:57:42;;;;;;;31.17;14.45;;;;;;;;;;10194740;28;20034;-63
2020/12/31 06:02:44;;;;;;;30.02;13.65;;;;;;;;;;10205708;28;20038;-63
2020/12/31 06:07:42;;;;;;;31.02;14.38;;;;;;;;;;10214795;28;20039;-63
2020/12/31 06:12:45;;;;;;;32.83;14.18;;;;;;;;;;10211592;28;20042;-64
2020/12/31 06:17:47;;;;;;;33.78;14.48;;;;;;;;;;10200349;28;20038;-63
2020/12/31 06:22:56;;;;;;;25.80;11.63;;;;;;;;;;10203620;28;20042;-64
2020/12/31 06:27:55;;;;;;;22.27;9.35;;;;;;;;;;10205261;28;20800;-63
2020/12/31 06:32:52;;;;;;;31.05;14.00;;;;;;;;;;10195072;28;20050;-62
2020/12/31 06:37:57;;;;;;;17.57;7.57;;;;;;;;;;10201015;28;20049;-63
2020/12/31 06:43:05;;;;;;;29.42;12.15;;;;;;;;;;10197006;28;20046;-63
2020/12/31 06:48:03;;;;;;;26.38;13.10;;;;;;;;;;10208104;28;20460;-64
2020/12/31 06:53:01;;;;;;;;;;;;;;;;;;10193014;28;20412;-63
2020/12/31 06:58:18;;;;;;;23.23;10.85;;;;;;;;;;10204588;28;19921;-62
2020/12/31 07:03:35;;;;;;;29.27;13.23;;;;;;;;;;10209520;28;20095;-61
2020/12/31 07:08:38;;;;;;;21.70;10.43;;;;;;;;;;10195981;28;20042;-63
2020/12/31 07:13:38;;;;;;;26.70;10.88;;;;;;;;;;10209106;28;20060;-63
2020/12/31 07:18:40;;;;;;;18.08;9.20;;;;;;;;;;10200663;28;20031;-62
2020/12/31 07:23:37;;;;;;;32.05;13.43;;;;;;;;;;10206719;28;20513;-62
2020/12/31 07:28:35;;;;;;;20.20;9.00;;;;;;;;;;10210475;28;20051;-62
2020/12/31 07:33:33;;;;;;;27.13;12.73;;;;;;;;;;10147062;28;20038;-62
2020/12/31 07:38:31;;;;;;;30.73;12.55;;;;;;;;;;10175852;28;20290;-64
2020/12/31 07:43:30;;;;;;;23.98;10.15;;;;;;;;;;10196215;28;20035;-63
2020/12/31 07:48:27;;;;;;;;;;;;;;;;;;10187358;28;20528;-64
2020/12/31 07:53:25;;;;;;;22.43;11.13;;;;;;;;;;10167443;28;20520;-64
2020/12/31 07:58:24;;;;;;;25.73;12.32;;;;;;;;;;10190163;28;20294;-64
2020/12/31 08:03:21;;;;;;;;;;;;;;;;;;10178339;28;20583;-64
2020/12/31 08:08:18;;;;;;;28.58;13.82;;;;;;;;;;10157614;28;19961;-63
2020/12/31 08:13:17;;;;;;;32.43;14.67;;;;;;;;;;10136755;28;20520;-63
2020/12/31 08:18:16;;;;;;;27.40;13.20;;;;;;;;;;10152925;28;20031;-62
2020/12/31 08:23:17;;;;;;;22.90;11.35;;;;;;;;;;10130494;28;20137;-63
2020/12/31 08:28:19;;;;;;;30.23;15.27;;;;;;;;;;10184764;28;20448;-63
2020/12/31 08:33:23;;;;;;;25.13;12.45;;;;;;;;;;10205663;28;20088;-63
2020/12/31 08:38:22;;;;;;;23.67;12.48;;;;;;;;;;10192989;28;20030;-63
2020/12/31 08:43:40;;;;;;;23.35;10.52;;;;;;;;;;10183357;28;20035;-63
2020/12/31 08:48:37;;;;;;;25.25;11.77;;;;;;;;;;10195065;28;20038;-62
2020/12/31 08:53:51;;;;;;;20.83;8.77;;;;;;;;;;10198633;28;20408;-63
2020/12/31 08:58:48;;;;;;;18.63;9.73;;;;;;;;;;10205560;28;20579;-63
2020/12/31 09:03:46;;;;;;;16.07;8.53;;;;;;;;;;10171774;28;20148;-62
2020/12/31 09:08:46;;;;;;;27.83;11.17;;;;;;;;;;10198406;28;20058;-64
2020/12/31 09:13:44;;;;;;;9.63;5.30;;;;;;;;;;10180848;28;20493;-61
2020/12/31 09:18:42;;;;;;;17.93;7.70;;;;;;;;;;10196068;28;20125;-65
2020/12/31 09:23:39;;;;;;;16.98;8.38;;;;;;;;;;10195095;28;20101;-65
2020/12/31 09:28:38;;;;;;;18.70;9.53;;;;;;;;;;10196928;28;20088;-65
2020/12/31 09:33:35;;;;;;;18.88;9.35;;;;;;;;;;10188917;28;20045;-64
2020/12/31 09:38:32;;;;;;;19.20;9.53;;;;;;;;;;10208129;28;20050;-65
2020/12/31 09:43:30;;;;;;;19.53;9.30;;;;;;;;;;10213125;28;20049;-65
2020/12/31 09:48:27;;;;;;;18.77;8.60;;;;;;;;;;10182136;28;20085;-65
2020/12/31 09:53:24;;;;;;;19.50;10.50;;;;;;;;;;10186942;28;20043;-64
2020/12/31 09:58:22;;;;;;;25.27;12.80;;;;;;;;;;10192995;28;20043;-64
2020/12/31 10:03:19;;;;;;;25.10;12.67;;;;;;;;;;10199410;28;20211;-63
2020/12/31 10:08:17;;;;;;;24.27;12.60;;;;;;;;;;10208706;28;20042;-64
2020/12/31 10:13:14;;;;;;;21.37;9.87;;;;;;;;;;10202585;28;20141;-65
2020/12/31 10:18:11;;;;;;;27.37;9.40;;;;;;;;;;10197256;28;20382;-66
2020/12/31 10:23:09;;;;;;;17.00;7.97;;;;;;;;;;10202679;28;20188;-65
2020/12/31 10:28:06;;;;;;;21.20;9.77;;;;;;;;;;10198547;28;20069;-66
2020/12/31 10:33:04;;;;;;;18.17;8.60;;;;;;;;;;10207071;28;20034;-66
2020/12/31 10:38:01;;;;;;;19.50;9.20;;;;;;;;;;10189450;28;20042;-65
2020/12/31 10:42:58;;;;;;;14.87;8.27;;;;;;;;;;10204202;28;20467;-66
2020/12/31 10:47:56;;;;;;;8.90;5.77;;;;;;;;;;10197052;28;20042;-66
2020/12/31 10:52:53;;;;;;;19.77;8.87;;;;;;;;;;10185860;28;20042;-66
2020/12/31 10:57:50;;;;;;;16.93;8.73;;;;;;;;;;10186811;28;20042;-66
2020/12/31 11:02:48;;;;;;;22.17;8.63;;;;;;;;;;10206327;28;20130;-66
2020/12/31 11:07:45;;;;;;;10.70;5.47;;;;;;;;;;10201026;28;20046;-66
2020/12/31 11:12:43;;;;;;;15.23;7.67;;;;;;;;;;10205823;28;20176;-66
2020/12/31 11:17:41;;;;;;;;;;;;;;;;;;10180011;28;20066;-66
2020/12/31 11:22:38;;;;;;;12.45;6.22;;;;;;;;;;10155885;28;19956;-66
2020/12/31 11:27:36;;;;;;;11.77;6.67;;;;;;;;;;10179072;28;20043;-66
2020/12/31 11:32:37;;;;;;;11.87;5.93;;;;;;;;;;10190401;28;20485;-66
2020/12/31 11:37:35;;;;;;;10.82;5.82;;;;;;;;;;10207065;28;20026;-65
2020/12/31 11:42:33;;;;;;;14.93;6.90;;;;;;;;;;10205891;28;20035;-65
2020/12/31 11:47:31;;;;;;;12.95;6.65;;;;;;;;;;10207929;28;20539;-65
2020/12/31 11:52:28;;;;;;;9.40;5.40;;;;;;;;;;10188979;28;20416;-65
2020/12/31 11:57:25;;;;;;;10.47;5.30;;;;;;;;;;10183549;28;20030;-62
2020/12/31 12:02:23;;;;;;;14.93;6.70;;;;;;;;;;10172417;28;20073;-64
2020/12/31 12:07:20;;;;;;;14.83;7.27;;;;;;;;;;10182859;28;20108;-64
2020/12/31 12:12:19;;;;;;;12.23;5.93;;;;;;;;;;10196738;28;20065;-64
2020/12/31 12:17:16;;;;;;;12.55;5.32;;;;;;;;;;10203331;28;20026;-63
2020/12/31 12:22:14;;;;;;;16.40;7.27;;;;;;;;;;10176553;28;20040;-63
2020/12/31 12:27:11;;;;;;;14.37;7.37;;;;;;;;;;10186091;28;20041;-64
2020/12/31 12:32:09;;;;;;;11.93;6.33;;;;;;;;;;10185927;28;20030;-65
2020/12/31 12:37:07;;;;;;;13.48;6.35;;;;;;;;;;10182906;28;20062;-63
2020/12/31 12:42:04;;;;;;;11.90;5.53;;;;;;;;;;10202777;28;20540;-64
2020/12/31 12:47:02;;;;;;;8.53;4.33;;;;;;;;;;10193721;28;20121;-64
2020/12/31 12:52:01;;;;;;;10.17;4.43;;;;;;;;;;10203069;28;20038;-63
2020/12/31 12:56:58;;;;;;;12.88;6.05;;;;;;;;;;10181961;28;20040;-63
2020/12/31 13:01:56;;;;;;;10.87;5.30;;;;;;;;;;10205913;28;20041;-63
2020/12/31 13:06:53;;;;;;;15.67;7.13;;;;;;;;;;10208828;28;20065;-63
2020/12/31 13:11:51;;;;;;;8.67;4.57;;;;;;;;;;10201789;28;20054;-62
2020/12/31 13:16:52;;;;;;;14.20;6.93;;;;;;;;;;10188436;28;20046;-62
2020/12/31 13:21:53;;;;;;;13.10;5.63;;;;;;;;;;10195281;28;20069;-62
2020/12/31 13:26:51;;;;;;;13.27;6.32;;;;;;;;;;10204498;28;20046;-63
2020/12/31 13:31:48;;;;;;;14.53;6.97;;;;;;;;;;10194914;28;20081;-64
2020/12/31 13:36:48;;;;;;;17.43;7.47;;;;;;;;;;10182587;28;20046;-64
2020/12/31 13:41:46;;;;;;;12.60;6.22;;;;;;;;;;10216409;28;20188;-64
2020/12/31 13:46:44;;;;;;;15.73;7.10;;;;;;;;;;10176336;28;20133;-63
2020/12/31 13:51:41;;;;;;;12.27;6.47;;;;;;;;;;10197194;28;20047;-63
2020/12/31 13:56:41;;;;;;;14.47;7.07;;;;;;;;;;10181012;28;20043;-64
2020/12/31 14:01:39;;;;;;;16.40;8.40;;;;;;;;;;10206177;28;20031;-62
2020/12/31 14:06:36;;;;;;;16.60;8.77;;;;;;;;;;10187654;28;20034;-63
2020/12/31 14:11:34;;;;;;;17.33;7.53;;;;;;;;;;10200995;28;20811;-63
2020/12/31 14:16:33;;;;;;;15.57;7.38;;;;;;;;;;10212558;28;20448;-62
2020/12/31 14:21:30;;;;;;;;;;;;;;;;;;10207425;28;20488;-63
2020/12/31 14:26:27;;;;;;;16.55;7.97;;;;;;;;;;10223486;28;19918;-63
2020/12/31 14:31:41;;;;;;;17.40;6.43;;;;;;;;;;10211994;28;20060;-62
2020/12/31 14:36:38;;;;;;;15.90;7.53;;;;;;;;;;10208655;28;20068;-62
2020/12/31 14:41:36;;;;;;;11.90;6.47;;;;;;;;;;10201952;28;20065;-62
2020/12/31 14:46:35;;;;;;;15.07;6.63;;;;;;;;;;10194311;28;20049;-62
2020/12/31 14:51:33;;;;;;;13.82;6.57;;;;;;;;;;10198033;28;20566;-63
2020/12/31 14:56:31;;;;;;;11.67;6.90;;;;;;;;;;10203736;28;20342;-62
2020/12/31 15:01:28;;;;;;;13.35;6.50;;;;;;;;;;10187644;28;20309;-62
2020/12/31 15:06:31;;;;;;;18.23;7.27;;;;;;;;;;10178845;28;20034;-62
2020/12/31 15:11:29;;;;;;;14.48;7.38;;;;;;;;;;10201724;28;20034;-62
2020/12/31 15:16:26;;;;;;;14.57;7.80;;;;;;;;;;10186800;28;20034;-62
2020/12/31 15:21:23;;;;;;;14.37;6.80;;;;;;;;;;10215033;28;20030;-62
2020/12/31 15:26:21;;;;;;;14.43;5.93;;;;;;;;;;10189526;28;20061;-61
2020/12/31 15:31:19;;;;;;;16.08;7.57;;;;;;;;;;10198059;28;20130;-61
2020/12/31 15:36:22;;;;;;;18.10;7.80;;;;;;;;;;10199566;28;20173;-63
2020/12/31 15:41:20;;;;;;;15.50;8.75;;;;;;;;;;10205418;28;20412;-64
2020/12/31 15:46:17;;;;;;;14.50;8.10;;;;;;;;;;10209876;28;20057;-63
2020/12/31 15:51:15;;;;;;;24.23;10.00;;;;;;;;;;10212066;28;20038;-61
2020/12/31 15:56:15;;;;;;;19.90;8.33;;;;;;;;;;10185674;28;20030;-62
2020/12/31 16:01:13;;;;;;;17.90;6.40;;;;;;;;;;10205609;28;20470;-63
2020/12/31 16:06:12;;;;;;;18.97;7.73;;;;;;;;;;10176719;28;20034;-62
2020/12/31 16:11:10;;;;;;;15.43;7.32;;;;;;;;;;10202249;28;20579;-63
2020/12/31 16:16:07;;;;;;;12.70;7.23;;;;;;;;;;10196870;28;20956;-64
2020/12/31 16:21:07;;;;;;;17.60;7.50;;;;;;;;;;10195446;28;20062;-63
2020/12/31 16:26:04;;;;;;;12.63;7.43;;;;;;;;;;10200264;28;20736;-63
2020/12/31 16:31:02;;;;;;;14.83;6.50;;;;;;;;;;10178087;28;20441;-63
2020/12/31 16:35:59;;;;;;;16.70;7.13;;;;;;;;;;10186459;28;20049;-63
2020/12/31 16:40:56;;;;;;;15.03;7.63;;;;;;;;;;10197851;28;20038;-63
2020/12/31 16:45:54;;;;;;;20.40;8.70;;;;;;;;;;10185364;28;20081;-63
2020/12/31 16:50:51;;;;;;;13.87;6.43;;;;;;;;;;10191096;28;20137;-62
2020/12/31 16:55:49;;;;;;;12.30;6.10;;;;;;;;;;10199939;28;20057;-64
2020/12/31 17:00:46;;;;;;;13.67;5.93;;;;;;;;;;10209774;28;20034;-62
2020/12/31 17:05:43;;;;;;;13.13;6.50;;;;;;;;;;10192909;28;20405;-63
2020/12/31 17:10:41;;;;;;;8.63;5.80;;;;;;;;;;10191766;28;21864;-63
2020/12/31 17:15:39;;;;;;;12.93;6.53;;;;;;;;;;10207472;28;20034;-63
2020/12/31 17:20:36;;;;;;;9.30;4.67;;;;;;;;;;10185764;28;20273;-62
2020/12/31 17:25:34;;;;;;;16.23;6.57;;;;;;;;;;10165796;28;20045;-63
2020/12/31 17:30:32;;;;;;;17.77;8.87;;;;;;;;;;10185647;28;20031;-62
2020/12/31 17:35:30;;;;;;;19.40;7.80;;;;;;;;;;10190005;28;20054;-63
2020/12/31 17:40:28;;;;;;;19.30;8.40;;;;;;;;;;10170067;28;20172;-62
2020/12/31 17:45:26;;;;;;;16.50;7.70;;;;;;;;;;10190266;28;20138;-63
2020/12/31 17:50:24;;;;;;;14.57;7.30;;;;;;;;;;10205607;28;20050;-62
2020/12/31 17:55:21;;;;;;;19.45;7.40;;;;;;;;;;10179011;28;20063;-62
2020/12/31 18:00:19;;;;;;;21.07;9.30;;;;;;;;;;10196393;28;20711;-63
2020/12/31 18:05:16;;;;;;;16.13;7.80;;;;;;;;;;10197476;28;20049;-65
2020/12/31 18:10:14;;;;;;;16.13;6.30;;;;;;;;;;10175141;28;20141;-66
2020/12/31 18:15:11;;;;;;;7.67;5.07;;;;;;;;;;10210907;28;20093;-66
2020/12/31 18:20:09;;;;;;;;;;;;;;;;;;10192073;28;20039;-63
2020/12/31 18:25:07;;;;;;;17.67;7.95;;;;;;;;;;10193279;28;20175;-65
2020/12/31 18:30:05;;;;;;;16.77;7.70;;;;;;;;;;10188485;28;20039;-65
2020/12/31 18:35:03;;;;;;;19.73;8.75;;;;;;;;;;10198678;28;20061;-63
2020/12/31 18:40:00;;;;;;;17.20;8.32;;;;;;;;;;10199236;28;20501;-64
2020/12/31 18:44:58;;;;;;;20.20;8.53;;;;;;;;;;10178066;28;20042;-63
2020/12/31 18:49:55;;;;;;;38.23;12.60;;;;;;;;;;10204555;28;20037;-64
2020/12/31 18:54:53;;;;;;;36.17;14.67;;;;;;;;;;10196892;28;20178;-64
2020/12/31 18:59:50;;;;;;;29.10;12.40;;;;;;;;;;10201380;28;20038;-64
2020/12/31 19:04:47;;;;;;;16.10;8.60;;;;;;;;;;10175048;28;20385;-64
2020/12/31 19:09:45;;;;;;;20.63;10.50;;;;;;;;;;10213989;28;20046;-64
2020/12/31 19:14:42;;;;;;;26.50;11.20;;;;;;;;;;10210114;28;20408;-64
2020/12/31 19:19:40;;;;;;;17.83;8.70;;;;;;;;;;10179456;28;20038;-64
2020/12/31 19:24:37;;;;;;;26.23;9.33;;;;;;;;;;10202635;28;20048;-64
2020/12/31 19:29:34;;;;;;;25.10;10.40;;;;;;;;;;10187645;28;20048;-64
2020/12/31 19:34:32;;;;;;;16.07;6.97;;;;;;;;;;10183042;28;20026;-63
2020/12/31 19:39:29;;;;;;;19.43;8.77;;;;;;;;;;10197327;28;20034;-65
2020/12/31 19:44:27;;;;;;;13.77;6.87;;;;;;;;;;10188951;28;20034;-63
2020/12/31 19:49:25;;;;;;;19.10;9.82;;;;;;;;;;10194920;28;20137;-65
2020/12/31 19:54:25;;;;;;;16.40;7.10;;;;;;;;;;10185338;28;20137;-64
2020/12/31 19:59:22;;;;;;;17.75;8.65;;;;;;;;;;10191949;28;20030;-64
2020/12/31 20:04:19;;;;;;;22.93;9.30;;;;;;;;;;10205647;28;20031;-62
2020/12/31 20:09:17;;;;;;;23.53;11.03;;;;;;;;;;10201988;28;20034;-64
2020/12/31 20:14:14;;;;;;;21.63;10.80;;;;;;;;;;10188641;28;20452;-65
2020/12/31 20:19:12;;;;;;;16.83;7.97;;;;;;;;;;10210440;28;20048;-64
2020/12/31 20:24:09;;;;;;;19.53;7.97;;;;;;;;;;10189103;28;20045;-63
2020/12/31 20:29:06;;;;;;;23.23;10.87;;;;;;;;;;10188597;28;20088;-63
2020/12/31 20:34:04;;;;;;;20.57;9.30;;;;;;;;;;10196032;28;20677;-64
2020/12/31 20:39:03;;;;;;;25.23;10.67;;;;;;;;;;10206546;28;20053;-64
2020/12/31 20:44:01;;;;;;;22.15;10.63;;;;;;;;;;10207424;28;20707;-64
2020/12/31 20:48:59;;;;;;;21.15;9.45;;;;;;;;;;10166813;28;20611;-63
2020/12/31 20:53:57;;;;;;;26.30;11.20;;;;;;;;;;10187881;28;20050;-64
2020/12/31 20:58:56;;;;;;;22.67;9.75;;;;;;;;;;10158676;28;20039;-65
2020/12/31 21:03:54;;;;;;;23.80;10.73;;;;;;;;;;10163395;28;20039;-64
2020/12/31 21:08:51;;;;;;;7.03;4.97;;;;;;;;;;10199550;28;20052;-64
2020/12/31 21:13:48;;;;;;;20.27;10.13;;;;;;;;;;10219757;28;20093;-63
2020/12/31 21:18:47;;;;;;;26.17;11.77;;;;;;;;;;10196972;28;20635;-64
2020/12/31 21:23:45;;;;;;;17.85;9.57;;;;;;;;;;10186430;28;20945;-63
2020/12/31 21:28:46;;;;;;;22.60;10.40;;;;;;;;;;10217102;28;20129;-64
2020/12/31 21:33:43;;;;;;;18.23;8.95;;;;;;;;;;10218229;28;20377;-64
2020/12/31 21:38:41;;;;;;;22.07;9.87;;;;;;;;;;10199158;28;20780;-65
2020/12/31 21:43:39;;;;;;;13.85;7.60;;;;;;;;;;10188500;28;20047;-64
2020/12/31 21:48:36;;;;;;;19.37;9.10;;;;;;;;;;10221316;28;20492;-65
2020/12/31 21:53:35;;;;;;;15.90;7.87;;;;;;;;;;10231656;28;20136;-64
2020/12/31 21:58:32;;;;;;;16.55;8.60;;;;;;;;;;10219675;28;20069;-65
2020/12/31 22:03:30;;;;;;;15.13;8.17;;;;;;;;;;10221267;28;20042;-65
2020/12/31 22:08:27;;;;;;;19.13;8.63;;;;;;;;;;10213360;28;20076;-65
2020/12/31 22:13:24;;;;;;;23.80;10.87;;;;;;;;;;10212543;28;20116;-64
2020/12/31 22:18:22;;;;;;;22.60;12.50;;;;;;;;;;10219987;28;20409;-67
2020/12/31 22:23:19;;;;;;;20.87;10.47;;;;;;;;;;10206695;28;20035;-64
2020/12/31 22:28:17;;;;;;;16.53;9.47;;;;;;;;;;10237066;28;20030;-65
2020/12/31 22:33:14;;;;;;;21.93;11.20;;;;;;;;;;10173782;28;20030;-65
2020/12/31 22:38:12;;;;;;;21.30;9.53;;;;;;;;;;10201444;28;20372;-65
2020/12/31 22:43:09;;;;;;;23.70;11.13;;;;;;;;;;10186698;28;20031;-65
2020/12/31 22:48:07;;;;;;;14.97;7.47;;;;;;;;;;10217553;28;20656;-64
2020/12/31 22:53:04;;;;;;;20.17;10.43;;;;;;;;;;10200349;28;20096;-64
2020/12/31 22:58:02;;;;;;;23.53;11.50;;;;;;;;;;10195759;28;20429;-64
2020/12/31 23:02:59;;;;;;;25.13;11.17;;;;;;;;;;10214347;28;20038;-64
2020/12/31 23:07:57;;;;;;;23.33;10.43;;;;;;;;;;10197963;28;20053;-64
2020/12/31 23:12:54;;;;;;;27.50;12.53;;;;;;;;;;10211334;28;20056;-64
2020/12/31 23:17:52;;;;;;;18.80;9.47;;;;;;;;;;10219297;28;20042;-64
2020/12/31 23:22:50;;;;;;;15.85;9.18;;;;;;;;;;10215731;28;20113;-64
2020/12/31 23:27:49;;;;;;;30.75;13.25;;;;;;;;;;10220242;28;20133;-65
2020/12/31 23:32:47;;;;;;;25.02;13.25;;;;;;;;;;10191990;28;20050;-65
2020/12/31 23:37:48;;;;;;;20.42;9.50;;;;;;;;;;10186495;28;20042;-65
2020/12/31 23:42:48;;;;;;;24.02;9.13;;;;;;;;;;10187552;28;20050;-63
2020/12/31 23:47:47;;;;;;;19.63;9.07;;;;;;;;;;10189048;28;20038;-64
2020/12/31 23:52:44;;;;;;;37.35;13.43;;;;;;;;;;10194589;28;20086;-64
2020/12/31 23:57:42;;;;;;;10.67;4.67;;;;;;;;;;10200078;28;20188;-63
